Aircraft
UPR1004 PR-AEA A330
SBKP
Viracopos International Airport
TNCM
Princess Juliana International Airport
Pilot:: Jair
Aircraft:: A330-300 (GE)
Alternate: SVBS
Network: ivao
FLIGHT DETAILS
Distance: 2639nm Duration 06h 01m
Cruise Speed: Flight Level: 38000
Validation: Validated Type Charter
Flight Fuel
ZFW: 137665
Block Fuel/Initial FOB: 66317
Flight Fuel: 38224
Cargo
Passengers: 298
Cargo: 21000
ROUTE
ROUTE: sbkp rw15egben gertu pugor konto egenu gabar avaki lesor mapom tncm
REMARKS:
DATE
Date: 26-07-31
Departure Time: 0131
Cargo: 21000
FLIGHT DETAILS
Crashed: No
Validator Comments: Validado por Rafael
Flight Rating: 99
LANDING ANALYSIS
Landing wind: 89º/14 kt
Landing heading: 96º
Landing VS:: -421 ft/min
Landing IAS:: 142 kt
Landing Force G: 1.1 G
Landing Bank: -1
Landing Pitch: -3
Landing Flaps: 100
Navigation Lights: ON
Landing Lights: ON
Beacon Lights: ON
Strobe Lights: ON
viserfly

ALTITUDE CHART

viserfly

MAIN EVENTS

DATE EVENT IAS ALTITUDE
2026-07-31 01:29:30 FLYacars version 1.3.5 14 2160
2026-07-31 01:29:30 Aircraft boarding in progress 14 2160
2026-07-31 01:29:30 FLAPS 25% 14 2160
2026-07-31 01:29:30 Navigation Lights ON 14 2160
2026-07-31 01:29:30 Beacon Lights ON 14 2160
2026-07-31 01:29:30 Strobe Lights ON 14 2160
2026-07-31 01:29:30 Landing Lights ON 14 2160
2026-07-31 01:29:30 Taxi Lights ON 14 2160
2026-07-31 01:29:30 Starting Engine 2 14 2160
2026-07-31 01:29:30 Starting Engine 1 14 2160
2026-07-31 01:31:08 Aircraft taxiing to runway 21 2160
2026-07-31 01:31:45 Detected Take-off roll, HDG 155, IAS 153kt, GS 147kt, G-force 1.0g, Pitch -5.8deg, Bank 0.0deg, Wind 130/14kt, Temp 16°C 153 2162
2026-07-31 01:31:45 Airborne 153 2162
2026-07-31 01:31:45 Incorrect altimeter settings on takeoff 153 2162
2026-07-31 01:31:53 Taxi Lights OFF 166 2313
2026-07-31 01:32:03 Gear UP, IAS 176kt, GS 165kt, ALT 542ft AGL 176 2688
2026-07-31 01:32:23 FLAPS 0% 194kt, ALT 3397ft 194 3397
2026-07-31 01:36:09 Landing lights ON above 10000fts 267 11001
2026-07-31 03:11:19 Aircraft on Top Of Climb at 39377ft, IAS 256kt, GS 481kt, HDG 355deg, TAT -49deg, WIND 234/45kt 256 39377
2026-07-31 06:55:02 Aircraft on Top Of Descent at 37498ft, IAS 259kt, GS 463kt, HDG 326deg, TAT -48deg, WIND 214/27kt 259 37498
2026-07-31 07:19:23 FLAPS 25% 217kt, ALT 8081ft 217 8081
2026-07-31 07:22:38 FLAPS 50% 177kt, ALT 4930ft 177 4930
2026-07-31 07:22:59 FLAPS 75% 175kt, ALT 4593ft 175 4593
2026-07-31 07:23:39 Gear DOWN, IAS 165kt, GS 186kt, ALT 3913ft AGL 165 3914
2026-07-31 07:23:47 Taxi Lights ON 162 3787
2026-07-31 07:24:26 FLAPS 100% 143kt, ALT 3172ft 143 3172
2026-07-31 07:33:47 Landed at destination with a landing rate of -421fpm, G-force 1.1g, Pitch -3.5deg, Bank -1.3deg, HDG 96deg, IAS 142kt, GS 132kt, Wind 089/14kt, Temp 27°C 142 28
2026-07-31 07:33:47 Incorrect altimeter settings on landing 142 28
2026-07-31 07:34:04 FLAPS 75% 61 24
2026-07-31 07:34:04 FLAPS 25% 59 24
2026-07-31 07:34:04 FLAPS 0% 59 24
2026-07-31 07:34:17 Aircraft taxiing to apron 36 25
2026-07-31 07:38:19 Beacon Lights OFF 0 25
2026-07-31 07:38:20 Strobe Lights OFF 0 25
2026-07-31 07:38:28 Aircraft at gate/stand, ground services are moving into position, disembarkation has begun. Remaining FOB 28093kg FLYacars v1.3.5 0 25
viserfly

ACARS DATA

DATE IAS GS ALTITUDE FUEL CONSUMED OAT FLIGHT STATUS
2026-07-31 01:30:00 16 0 2160 13 16 BOARDING
2026-07-31 01:30:30 17 0 2160 25 16 BOARDING
2026-07-31 01:31:00 14 0 2160 37 16 BOARDING
2026-07-31 01:31:30 100 92 2160 145 16 TAKEOFF
2026-07-31 01:32:00 174 164 2520 283 16 TAKEOFF
2026-07-31 01:32:30 200 199 3596 426 14 INITIAL CLIMB
2026-07-31 01:33:00 208 214 4541 541 16 CLIMB
2026-07-31 01:33:30 211 229 5539 656 16 CLIMB
2026-07-31 01:34:00 216 245 6544 768 14 CLIMB
2026-07-31 01:34:30 228 262 7546 883 12 CLIMB
2026-07-31 01:35:00 247 286 8492 995 10 CLIMB
2026-07-31 01:35:30 250 292 9786 1104 8 CLIMB
2026-07-31 01:36:00 258 307 10855 1217 6 CLIMB
2026-07-31 01:36:30 286 342 11319 1326 5 CLIMB
2026-07-31 01:37:00 299 361 12104 1436 4 CLIMB
2026-07-31 01:37:30 301 372 13113 1542 2 CLIMB
2026-07-31 01:38:00 300 378 14183 1649 0 CLIMB
2026-07-31 01:38:30 301 385 15189 1751 -1 CLIMB
2026-07-31 01:39:00 300 390 16206 1853 -3 CLIMB
2026-07-31 01:39:30 301 395 17165 1953 -5 CLIMB
2026-07-31 01:40:00 300 399 18116 2052 -8 CLIMB
2026-07-31 01:40:30 300 405 18967 2149 -9 CLIMB
2026-07-31 01:41:00 300 410 19818 2247 -12 CLIMB
2026-07-31 01:41:30 300 414 20669 2342 -14 CLIMB
2026-07-31 01:42:00 300 419 21491 2435 -16 CLIMB
2026-07-31 01:42:30 300 422 22256 2525 -18 CLIMB
2026-07-31 01:43:00 300 424 22955 2616 -20 CLIMB
2026-07-31 01:43:30 300 427 23656 2705 -22 CLIMB
2026-07-31 01:44:00 300 431 24319 2795 -23 CLIMB
2026-07-31 01:44:30 300 436 24955 2882 -25 CLIMB
2026-07-31 01:45:00 300 442 25522 2968 -26 CLIMB
2026-07-31 01:45:30 300 446 26107 3054 -27 CLIMB
2026-07-31 01:46:00 301 451 26645 3135 -29 CLIMB
2026-07-31 01:46:30 301 454 27243 3219 -30 CLIMB
2026-07-31 01:47:00 299 456 27848 3301 -31 CLIMB
2026-07-31 01:47:30 300 461 28324 3382 -32 CLIMB
2026-07-31 01:48:00 300 465 28814 3463 -33 CLIMB
2026-07-31 01:48:30 300 468 29268 3543 -34 CLIMB
2026-07-31 01:49:00 300 472 29714 3623 -35 CLIMB
2026-07-31 01:49:30 300 476 30128 3698 -35 CLIMB
2026-07-31 01:50:00 300 480 30524 3776 -36 CLIMB
2026-07-31 01:50:30 300 483 30918 3851 -37 CLIMB
2026-07-31 01:51:00 300 487 31245 3926 -37 CLIMB
2026-07-31 01:51:30 300 492 31575 4001 -38 CLIMB
2026-07-31 01:52:00 300 496 31885 4076 -39 CLIMB
2026-07-31 01:52:30 299 499 32232 4149 -39 CLIMB
2026-07-31 01:53:00 296 499 32694 4222 -41 CLIMB
2026-07-31 01:53:30 293 501 33111 4295 -41 CLIMB
2026-07-31 01:54:00 290 500 33587 4366 -43 CLIMB
2026-07-31 01:54:30 287 501 33934 4436 -43 CLIMB
2026-07-31 01:55:00 286 503 34257 4505 -44 CLIMB
2026-07-31 01:55:30 283 501 34735 4574 -45 CLIMB
2026-07-31 01:56:00 282 502 34914 4636 -46 ENROUTE
2026-07-31 01:56:30 281 501 34914 4692 -46 ENROUTE
2026-07-31 01:57:00 282 501 34916 4751 -46 ENROUTE
2026-07-31 01:57:30 282 500 34923 4806 -46 ENROUTE
2026-07-31 01:58:00 281 500 34924 4864 -46 ENROUTE
2026-07-31 01:58:30 281 500 34923 4922 -46 ENROUTE
2026-07-31 01:59:00 284 498 34933 4978 -46 ENROUTE
2026-07-31 01:59:30 281 494 34935 5031 -46 ENROUTE
2026-07-31 02:00:00 281 494 34934 5089 -46 ENROUTE
2026-07-31 02:00:30 280 494 34938 5146 -45 ENROUTE
2026-07-31 02:01:00 281 496 34947 5204 -45 ENROUTE
2026-07-31 02:01:30 281 496 34943 5262 -45 ENROUTE
2026-07-31 02:02:00 281 496 34943 5320 -45 ENROUTE
2026-07-31 02:02:30 281 497 34947 5378 -45 ENROUTE
2026-07-31 02:03:00 281 498 34947 5436 -45 ENROUTE
2026-07-31 02:03:30 281 498 34947 5494 -45 ENROUTE
2026-07-31 02:04:00 283 497 34948 5550 -45 ENROUTE
2026-07-31 02:04:30 282 494 34951 5605 -45 ENROUTE
2026-07-31 02:05:00 281 493 34952 5661 -45 ENROUTE
2026-07-31 02:05:30 281 493 34951 5718 -45 ENROUTE
2026-07-31 02:06:00 279 495 34957 5778 -45 ENROUTE
2026-07-31 02:06:30 281 498 34955 5838 -45 ENROUTE
2026-07-31 02:07:00 281 498 34955 5895 -45 ENROUTE
2026-07-31 02:07:30 282 498 34952 5952 -45 ENROUTE
2026-07-31 02:08:00 282 495 34952 6007 -45 ENROUTE
2026-07-31 02:08:30 281 494 34956 6063 -45 ENROUTE
2026-07-31 02:09:00 281 494 34955 6121 -45 ENROUTE
2026-07-31 02:09:30 282 495 34952 6178 -45 ENROUTE
2026-07-31 02:10:00 281 495 34952 6235 -45 ENROUTE
2026-07-31 02:10:30 281 495 34955 6293 -45 ENROUTE
2026-07-31 02:11:00 281 495 34956 6349 -45 ENROUTE
2026-07-31 02:11:30 282 493 34959 6406 -45 ENROUTE
2026-07-31 02:12:00 281 492 34960 6462 -45 ENROUTE
2026-07-31 02:12:30 281 492 34960 6519 -45 ENROUTE
2026-07-31 02:13:00 282 492 34960 6576 -45 ENROUTE
2026-07-31 02:13:30 281 491 34959 6634 -45 ENROUTE
2026-07-31 02:14:00 281 491 34959 6692 -45 ENROUTE
2026-07-31 02:14:30 281 491 34965 6748 -45 ENROUTE
2026-07-31 02:15:00 283 491 34968 6806 -44 ENROUTE
2026-07-31 02:15:30 281 488 34974 6859 -44 ENROUTE
2026-07-31 02:16:00 281 487 34974 6917 -44 ENROUTE
2026-07-31 02:16:30 281 488 34970 6975 -44 ENROUTE
2026-07-31 02:17:00 282 487 34979 7033 -44 ENROUTE
2026-07-31 02:17:30 281 485 34981 7088 -44 ENROUTE
2026-07-31 02:18:00 281 486 34980 7145 -44 ENROUTE
2026-07-31 02:18:30 281 486 34977 7203 -44 ENROUTE
2026-07-31 02:19:00 282 485 34986 7260 -44 ENROUTE
2026-07-31 02:19:30 281 484 34986 7317 -44 ENROUTE
2026-07-31 02:20:00 279 487 34982 7377 -44 ENROUTE
2026-07-31 02:20:30 282 490 34983 7437 -44 ENROUTE
2026-07-31 02:21:00 281 489 34988 7494 -44 ENROUTE
2026-07-31 02:21:30 281 489 34987 7550 -43 ENROUTE
2026-07-31 02:22:00 281 489 34987 7608 -43 ENROUTE
2026-07-31 02:22:30 281 490 34989 7667 -43 ENROUTE
2026-07-31 02:23:00 281 490 34989 7724 -43 ENROUTE
2026-07-31 02:23:30 281 490 34989 7782 -43 ENROUTE
2026-07-31 02:24:00 281 490 34988 7839 -43 ENROUTE
2026-07-31 02:24:30 281 490 34989 7898 -43 ENROUTE
2026-07-31 02:25:00 281 490 34989 7954 -43 ENROUTE
2026-07-31 02:25:30 281 494 34989 8011 -43 ENROUTE
2026-07-31 02:26:00 281 495 34990 8070 -43 ENROUTE
2026-07-31 02:26:30 281 496 35001 8127 -43 ENROUTE
2026-07-31 02:27:00 281 496 35001 8185 -43 ENROUTE
2026-07-31 02:27:30 281 496 35001 8243 -43 ENROUTE
2026-07-31 02:28:00 281 496 35002 8301 -43 ENROUTE
2026-07-31 02:28:30 281 497 35017 8360 -43 ENROUTE
2026-07-31 02:29:00 281 497 35017 8417 -43 ENROUTE
2026-07-31 02:29:30 281 497 35019 8474 -43 ENROUTE
2026-07-31 02:30:00 281 497 35017 8532 -42 ENROUTE
2026-07-31 02:30:30 281 498 35036 8591 -42 ENROUTE
2026-07-31 02:31:00 283 499 35037 8648 -43 ENROUTE
2026-07-31 02:31:30 282 495 35030 8702 -43 ENROUTE
2026-07-31 02:32:00 280 493 35033 8757 -42 ENROUTE
2026-07-31 02:32:30 281 494 35040 8816 -42 ENROUTE
2026-07-31 02:33:00 281 494 35041 8873 -42 ENROUTE
2026-07-31 02:33:30 281 494 35042 8931 -42 ENROUTE
2026-07-31 02:34:00 280 494 35048 8990 -42 ENROUTE
2026-07-31 02:34:30 281 493 35066 9049 -42 ENROUTE
2026-07-31 02:35:00 281 493 35065 9108 -42 ENROUTE
2026-07-31 02:35:30 281 492 35060 9164 -42 ENROUTE
2026-07-31 02:36:00 280 493 35073 9222 -41 ENROUTE
2026-07-31 02:36:30 281 494 35080 9281 -41 ENROUTE
2026-07-31 02:37:00 281 494 35080 9339 -41 ENROUTE
2026-07-31 02:37:30 281 494 35081 9396 -41 ENROUTE
2026-07-31 02:38:00 281 494 35089 9454 -41 ENROUTE
2026-07-31 02:38:30 280 487 35091 9513 -41 ENROUTE
2026-07-31 02:39:00 280 482 35092 9570 -41 ENROUTE
2026-07-31 02:39:30 280 485 35091 9629 -41 ENROUTE
2026-07-31 02:40:00 281 486 35096 9688 -40 ENROUTE
2026-07-31 02:40:30 281 487 35097 9746 -40 ENROUTE
2026-07-31 02:41:00 281 487 35098 9805 -40 ENROUTE
2026-07-31 02:41:30 281 487 35097 9863 -40 ENROUTE
2026-07-31 02:42:00 281 488 35112 9922 -40 ENROUTE
2026-07-31 02:42:30 281 488 35113 9977 -40 ENROUTE
2026-07-31 02:43:00 280 488 35115 10036 -40 ENROUTE
2026-07-31 02:43:30 280 490 35119 10095 -40 ENROUTE
2026-07-31 02:44:00 281 491 35118 10153 -40 ENROUTE
2026-07-31 02:44:30 281 491 35119 10210 -40 ENROUTE
2026-07-31 02:45:00 281 491 35119 10269 -40 ENROUTE
2026-07-31 02:45:30 281 491 35119 10326 -40 ENROUTE
2026-07-31 02:46:00 281 492 35131 10385 -40 ENROUTE
2026-07-31 02:46:30 280 492 35131 10443 -40 ENROUTE
2026-07-31 02:47:00 281 492 35131 10499 -40 ENROUTE
2026-07-31 02:47:30 280 493 35138 10558 -40 ENROUTE
2026-07-31 02:48:00 281 494 35145 10617 -40 ENROUTE
2026-07-31 02:48:30 281 494 35144 10676 -40 ENROUTE
2026-07-31 02:49:00 281 494 35144 10733 -40 ENROUTE
2026-07-31 02:49:30 281 494 35146 10789 -40 ENROUTE
2026-07-31 02:50:00 281 493 35152 10847 -40 ENROUTE
2026-07-31 02:50:30 281 492 35152 10903 -40 ENROUTE
2026-07-31 02:51:00 281 492 35152 10961 -40 ENROUTE
2026-07-31 02:51:30 281 492 35152 11018 -41 ENROUTE
2026-07-31 02:52:00 281 490 35166 11076 -41 ENROUTE
2026-07-31 02:52:30 281 490 35166 11133 -41 ENROUTE
2026-07-31 02:53:00 281 490 35166 11190 -41 ENROUTE
2026-07-31 02:53:30 281 490 35166 11248 -41 ENROUTE
2026-07-31 02:54:00 281 489 35173 11304 -41 ENROUTE
2026-07-31 02:54:30 281 489 35176 11362 -41 ENROUTE
2026-07-31 02:55:00 281 489 35176 11419 -41 ENROUTE
2026-07-31 02:55:30 281 489 35172 11477 -41 ENROUTE
2026-07-31 02:56:00 280 491 35190 11536 -41 ENROUTE
2026-07-31 02:56:30 281 492 35193 11595 -41 ENROUTE
2026-07-31 02:57:00 281 492 35193 11653 -41 ENROUTE
2026-07-31 02:57:30 281 492 35190 11710 -41 ENROUTE
2026-07-31 02:58:00 281 491 35196 11766 -41 ENROUTE
2026-07-31 02:58:30 281 491 35197 11824 -41 ENROUTE
2026-07-31 02:59:00 281 491 35200 11882 -41 ENROUTE
2026-07-31 02:59:30 281 491 35200 11939 -41 ENROUTE
2026-07-31 03:00:00 280 490 35204 11996 -41 ENROUTE
2026-07-31 03:00:30 280 491 35212 12055 -41 ENROUTE
2026-07-31 03:01:00 281 492 35212 12111 -41 ENROUTE
2026-07-31 03:01:30 281 492 35208 12169 -41 ENROUTE
2026-07-31 03:02:00 281 491 35211 12226 -40 ENROUTE
2026-07-31 03:02:30 281 491 35212 12283 -40 ENROUTE
2026-07-31 03:03:00 281 491 35212 12341 -40 ENROUTE
2026-07-31 03:03:30 281 491 35212 12399 -40 ENROUTE
2026-07-31 03:04:00 281 491 35211 12454 -40 ENROUTE
2026-07-31 03:04:30 280 491 35218 12513 -40 ENROUTE
2026-07-31 03:05:00 280 492 35218 12571 -40 ENROUTE
2026-07-31 03:05:30 279 492 35513 12635 -41 CLIMB
2026-07-31 03:06:00 276 490 35955 12700 -42 CLIMB
2026-07-31 03:06:30 274 489 36335 12764 -43 CLIMB
2026-07-31 03:07:00 272 489 36691 12827 -43 CLIMB
2026-07-31 03:07:30 270 488 37054 12889 -44 CLIMB
2026-07-31 03:08:00 268 486 37432 12950 -45 CLIMB
2026-07-31 03:08:30 265 485 37800 13011 -46 CLIMB
2026-07-31 03:09:00 264 486 38030 13072 -46 CLIMB
2026-07-31 03:09:30 263 486 38312 13132 -47 CLIMB
2026-07-31 03:10:00 261 484 38631 13190 -48 CLIMB
2026-07-31 03:10:30 258 481 38993 13249 -48 CLIMB
2026-07-31 03:11:00 257 481 39231 13306 -49 CLIMB
2026-07-31 03:11:30 257 482 39399 13361 -49 ENROUTE
2026-07-31 03:12:00 257 481 39401 13409 -49 ENROUTE
2026-07-31 03:12:30 256 479 39405 13456 -49 ENROUTE
2026-07-31 03:13:00 256 477 39406 13504 -49 ENROUTE
2026-07-31 03:13:30 255 476 39409 13554 -49 ENROUTE
2026-07-31 03:14:00 256 477 39408 13603 -49 ENROUTE
2026-07-31 03:14:30 257 476 39411 13650 -49 ENROUTE
2026-07-31 03:15:00 256 477 39413 13699 -49 ENROUTE
2026-07-31 03:15:30 256 477 39412 13747 -49 ENROUTE
2026-07-31 03:16:00 256 477 39412 13796 -49 ENROUTE
2026-07-31 03:16:30 257 477 39420 13844 -49 ENROUTE
2026-07-31 03:17:00 256 475 39423 13892 -49 ENROUTE
2026-07-31 03:17:30 256 474 39422 13940 -49 ENROUTE
2026-07-31 03:18:00 256 474 39426 13989 -49 ENROUTE
2026-07-31 03:18:30 256 475 39426 14037 -49 ENROUTE
2026-07-31 03:19:00 256 474 39432 14086 -49 ENROUTE
2026-07-31 03:19:30 256 474 39432 14135 -49 ENROUTE
2026-07-31 03:20:00 256 474 39432 14183 -49 ENROUTE
2026-07-31 03:20:30 256 474 39432 14233 -49 ENROUTE
2026-07-31 03:21:00 256 474 39437 14282 -49 ENROUTE
2026-07-31 03:21:30 256 474 39437 14331 -49 ENROUTE
2026-07-31 03:22:00 256 473 39437 14379 -49 ENROUTE
2026-07-31 03:22:30 256 474 39441 14427 -49 ENROUTE
2026-07-31 03:23:00 256 474 39441 14477 -50 ENROUTE
2026-07-31 03:23:30 256 473 39445 14525 -50 ENROUTE
2026-07-31 03:24:00 256 473 39446 14574 -49 ENROUTE
2026-07-31 03:24:30 256 473 39446 14622 -50 ENROUTE
2026-07-31 03:25:00 256 473 39447 14671 -50 ENROUTE
2026-07-31 03:25:30 256 473 39446 14721 -50 ENROUTE
2026-07-31 03:26:00 256 473 39446 14769 -50 ENROUTE
2026-07-31 03:26:30 256 473 39446 14816 -49 ENROUTE
2026-07-31 03:27:00 256 473 39446 14866 -50 ENROUTE
2026-07-31 03:27:30 257 473 39448 14915 -50 ENROUTE
2026-07-31 03:28:00 256 471 39447 14962 -50 ENROUTE
2026-07-31 03:28:30 256 470 39447 15010 -50 ENROUTE
2026-07-31 03:29:00 256 470 39448 15059 -50 ENROUTE
2026-07-31 03:29:30 256 470 39449 15108 -50 ENROUTE
2026-07-31 03:30:00 256 470 39449 15156 -50 ENROUTE
2026-07-31 03:30:30 256 470 39448 15205 -50 ENROUTE
2026-07-31 03:31:00 256 470 39449 15253 -50 ENROUTE
2026-07-31 03:31:30 256 470 39448 15302 -50 ENROUTE
2026-07-31 03:32:00 256 470 39451 15351 -50 ENROUTE
2026-07-31 03:32:30 256 470 39452 15400 -50 ENROUTE
2026-07-31 03:33:00 256 470 39450 15449 -50 ENROUTE
2026-07-31 03:33:30 256 470 39450 15497 -50 ENROUTE
2026-07-31 03:34:00 256 470 39448 15545 -50 ENROUTE
2026-07-31 03:34:30 256 470 39450 15595 -50 ENROUTE
2026-07-31 03:35:00 256 470 39450 15643 -50 ENROUTE
2026-07-31 03:35:30 256 470 39449 15693 -50 ENROUTE
2026-07-31 03:36:00 256 470 39451 15742 -50 ENROUTE
2026-07-31 03:36:30 256 470 39453 15789 -50 ENROUTE
2026-07-31 03:37:00 256 470 39453 15837 -50 ENROUTE
2026-07-31 03:37:30 256 471 39454 15887 -50 ENROUTE
2026-07-31 03:38:00 256 470 39451 15936 -50 ENROUTE
2026-07-31 03:38:30 256 470 39454 15984 -50 ENROUTE
2026-07-31 03:39:00 256 470 39457 16033 -50 ENROUTE
2026-07-31 03:39:30 256 470 39456 16083 -50 ENROUTE
2026-07-31 03:40:00 256 470 39456 16131 -50 ENROUTE
2026-07-31 03:40:30 256 470 39456 16179 -50 ENROUTE
2026-07-31 03:41:00 256 470 39456 16227 -50 ENROUTE
2026-07-31 03:41:30 256 470 39459 16276 -50 ENROUTE
2026-07-31 03:42:00 256 470 39462 16325 -50 ENROUTE
2026-07-31 03:42:30 256 470 39462 16374 -50 ENROUTE
2026-07-31 03:43:00 256 470 39462 16422 -50 ENROUTE
2026-07-31 03:43:30 256 468 39460 16471 -50 ENROUTE
2026-07-31 03:44:00 256 468 39466 16520 -50 ENROUTE
2026-07-31 03:44:30 256 468 39467 16568 -50 ENROUTE
2026-07-31 03:45:00 256 468 39466 16617 -50 ENROUTE
2026-07-31 03:45:30 256 468 39462 16665 -50 ENROUTE
2026-07-31 03:46:00 256 468 39462 16714 -50 ENROUTE
2026-07-31 03:46:30 256 468 39468 16763 -50 ENROUTE
2026-07-31 03:47:00 256 468 39471 16812 -50 ENROUTE
2026-07-31 03:47:30 256 468 39468 16861 -50 ENROUTE
2026-07-31 03:48:00 256 468 39467 16910 -50 ENROUTE
2026-07-31 03:48:30 256 468 39468 16958 -50 ENROUTE
2026-07-31 03:49:00 256 468 39467 17006 -50 ENROUTE
2026-07-31 03:49:30 256 468 39471 17055 -50 ENROUTE
2026-07-31 03:50:00 256 468 39471 17104 -50 ENROUTE
2026-07-31 03:50:30 256 468 39471 17153 -50 ENROUTE
2026-07-31 03:51:00 256 468 39471 17201 -50 ENROUTE
2026-07-31 03:51:30 256 468 39475 17250 -50 ENROUTE
2026-07-31 03:52:00 256 468 39475 17298 -50 ENROUTE
2026-07-31 03:52:30 256 468 39479 17347 -50 ENROUTE
2026-07-31 03:53:00 256 468 39480 17396 -50 ENROUTE
2026-07-31 03:53:30 256 468 39481 17445 -50 ENROUTE
2026-07-31 03:54:00 256 468 39481 17493 -50 ENROUTE
2026-07-31 03:54:30 256 468 39481 17543 -50 ENROUTE
2026-07-31 03:55:00 256 468 39480 17592 -50 ENROUTE
2026-07-31 03:55:30 256 468 39479 17640 -50 ENROUTE
2026-07-31 03:56:00 256 467 39479 17687 -50 ENROUTE
2026-07-31 03:56:30 256 467 39485 17735 -50 ENROUTE
2026-07-31 03:57:00 256 467 39485 17784 -50 ENROUTE
2026-07-31 03:57:30 256 467 39482 17833 -50 ENROUTE
2026-07-31 03:58:00 256 467 39480 17882 -50 ENROUTE
2026-07-31 03:58:30 256 466 39478 17929 -50 ENROUTE
2026-07-31 03:59:00 256 466 39477 17978 -50 ENROUTE
2026-07-31 03:59:29 256 466 39477 18026 -50 ENROUTE
2026-07-31 03:59:59 256 466 39477 18073 -50 ENROUTE
2026-07-31 04:00:29 256 466 39488 18122 -50 ENROUTE
2026-07-31 04:00:59 256 466 39491 18171 -50 ENROUTE
2026-07-31 04:01:29 256 466 39488 18219 -50 ENROUTE
2026-07-31 04:01:59 256 466 39486 18268 -50 ENROUTE
2026-07-31 04:02:29 256 466 39486 18317 -50 ENROUTE
2026-07-31 04:02:59 256 466 39483 18363 -50 ENROUTE
2026-07-31 04:03:29 256 466 39484 18412 -50 ENROUTE
2026-07-31 04:03:59 256 466 39483 18461 -50 ENROUTE
2026-07-31 04:04:29 256 466 39485 18509 -50 ENROUTE
2026-07-31 04:04:59 256 466 39486 18558 -50 ENROUTE
2026-07-31 04:05:29 256 466 39490 18607 -50 ENROUTE
2026-07-31 04:05:59 256 467 39496 18656 -50 ENROUTE
2026-07-31 04:06:29 256 467 39496 18705 -50 ENROUTE
2026-07-31 04:06:59 256 467 39495 18751 -50 ENROUTE
2026-07-31 04:07:29 256 467 39495 18800 -50 ENROUTE
2026-07-31 04:07:59 256 467 39495 18849 -51 ENROUTE
2026-07-31 04:08:29 256 466 39493 18898 -51 ENROUTE
2026-07-31 04:08:59 256 466 39492 18947 -51 ENROUTE
2026-07-31 04:09:29 256 466 39496 18995 -51 ENROUTE
2026-07-31 04:09:59 256 466 39496 19043 -51 ENROUTE
2026-07-31 04:10:29 256 466 39496 19092 -51 ENROUTE
2026-07-31 04:10:59 256 466 39496 19138 -51 ENROUTE
2026-07-31 04:11:29 256 466 39495 19187 -51 ENROUTE
2026-07-31 04:11:59 256 466 39496 19236 -51 ENROUTE
2026-07-31 04:12:29 256 466 39496 19284 -51 ENROUTE
2026-07-31 04:12:59 256 466 39496 19332 -51 ENROUTE
2026-07-31 04:13:29 256 466 39497 19381 -51 ENROUTE
2026-07-31 04:13:59 256 466 39497 19429 -51 ENROUTE
2026-07-31 04:14:29 256 466 39497 19476 -51 ENROUTE
2026-07-31 04:14:59 256 466 39497 19526 -51 ENROUTE
2026-07-31 04:15:29 256 465 39497 19573 -51 ENROUTE
2026-07-31 04:15:59 256 465 39497 19621 -51 ENROUTE
2026-07-31 04:16:29 256 465 39496 19670 -51 ENROUTE
2026-07-31 04:16:59 256 465 39496 19717 -51 ENROUTE
2026-07-31 04:17:29 256 465 39496 19766 -51 ENROUTE
2026-07-31 04:17:59 256 465 39496 19815 -51 ENROUTE
2026-07-31 04:18:29 256 464 39497 19861 -51 ENROUTE
2026-07-31 04:18:59 256 464 39498 19910 -51 ENROUTE
2026-07-31 04:19:29 256 464 39497 19959 -51 ENROUTE
2026-07-31 04:19:59 256 464 39497 20006 -51 ENROUTE
2026-07-31 04:20:29 256 464 39499 20055 -51 ENROUTE
2026-07-31 04:20:59 256 464 39500 20104 -51 ENROUTE
2026-07-31 04:21:29 256 464 39500 20152 -51 ENROUTE
2026-07-31 04:21:59 256 464 39500 20200 -51 ENROUTE
2026-07-31 04:22:29 256 464 39500 20248 -51 ENROUTE
2026-07-31 04:22:59 256 464 39500 20297 -51 ENROUTE
2026-07-31 04:23:29 256 464 39498 20345 -51 ENROUTE
2026-07-31 04:23:59 256 464 39498 20394 -51 ENROUTE
2026-07-31 04:24:29 256 464 39500 20442 -51 ENROUTE
2026-07-31 04:24:59 256 464 39500 20491 -51 ENROUTE
2026-07-31 04:25:29 256 464 39498 20539 -51 ENROUTE
2026-07-31 04:25:59 256 464 39497 20586 -51 ENROUTE
2026-07-31 04:26:29 256 464 39500 20636 -51 ENROUTE
2026-07-31 04:26:59 256 464 39500 20684 -51 ENROUTE
2026-07-31 04:27:29 256 464 39501 20732 -51 ENROUTE
2026-07-31 04:27:59 256 464 39502 20781 -51 ENROUTE
2026-07-31 04:28:29 256 464 39503 20829 -51 ENROUTE
2026-07-31 04:28:59 256 464 39503 20878 -51 ENROUTE
2026-07-31 04:29:29 256 464 39502 20924 -51 ENROUTE
2026-07-31 04:29:59 256 464 39500 20973 -51 ENROUTE
2026-07-31 04:30:29 256 464 39506 21022 -51 ENROUTE
2026-07-31 04:30:59 256 463 39505 21069 -51 ENROUTE
2026-07-31 04:31:29 256 464 39502 21118 -51 ENROUTE
2026-07-31 04:31:59 256 464 39504 21167 -51 ENROUTE
2026-07-31 04:32:29 256 464 39503 21215 -51 ENROUTE
2026-07-31 04:32:59 256 464 39504 21263 -51 ENROUTE
2026-07-31 04:33:29 256 464 39509 21311 -51 ENROUTE
2026-07-31 04:33:59 256 464 39509 21358 -51 ENROUTE
2026-07-31 04:34:29 256 464 39509 21407 -51 ENROUTE
2026-07-31 04:34:59 256 464 39509 21456 -51 ENROUTE
2026-07-31 04:35:29 256 463 39509 21503 -51 ENROUTE
2026-07-31 04:35:59 255 464 39505 21552 -51 ENROUTE
2026-07-31 04:36:29 256 464 39508 21600 -51 ENROUTE
2026-07-31 04:36:59 256 464 39508 21647 -51 ENROUTE
2026-07-31 04:37:29 256 464 39509 21696 -51 ENROUTE
2026-07-31 04:37:59 256 464 39509 21743 -51 ENROUTE
2026-07-31 04:38:29 256 464 39509 21792 -51 ENROUTE
2026-07-31 04:38:59 256 464 39510 21841 -51 ENROUTE
2026-07-31 04:39:29 256 464 39508 21888 -51 ENROUTE
2026-07-31 04:39:59 256 464 39508 21937 -51 ENROUTE
2026-07-31 04:40:29 256 464 39515 21985 -51 ENROUTE
2026-07-31 04:40:59 256 464 39468 22031 -51 ENROUTE
2026-07-31 04:41:29 256 463 39456 22079 -51 ENROUTE
2026-07-31 04:41:59 256 463 39456 22126 -51 ENROUTE
2026-07-31 04:42:29 256 463 39459 22175 -51 ENROUTE
2026-07-31 04:42:59 256 463 39459 22223 -51 ENROUTE
2026-07-31 04:43:29 256 462 39455 22271 -51 ENROUTE
2026-07-31 04:43:59 256 462 39455 22319 -51 ENROUTE
2026-07-31 04:44:29 256 462 39453 22368 -51 ENROUTE
2026-07-31 04:44:59 256 462 39453 22414 -51 ENROUTE
2026-07-31 04:45:29 256 462 39455 22463 -51 ENROUTE
2026-07-31 04:45:59 256 461 39456 22511 -51 ENROUTE
2026-07-31 04:46:29 256 461 39456 22558 -51 ENROUTE
2026-07-31 04:46:59 256 461 39456 22607 -51 ENROUTE
2026-07-31 04:47:29 256 461 39455 22655 -51 ENROUTE
2026-07-31 04:47:59 256 461 39456 22703 -51 ENROUTE
2026-07-31 04:48:29 256 461 39453 22750 -51 ENROUTE
2026-07-31 04:48:59 256 461 39453 22798 -51 ENROUTE
2026-07-31 04:49:29 256 461 39455 22846 -51 ENROUTE
2026-07-31 04:49:59 256 461 39455 22895 -51 ENROUTE
2026-07-31 04:50:29 256 461 39454 22943 -51 ENROUTE
2026-07-31 04:50:59 256 460 39455 22990 -51 ENROUTE
2026-07-31 04:51:29 255 460 39456 23039 -51 ENROUTE
2026-07-31 04:51:59 256 460 39455 23088 -51 ENROUTE
2026-07-31 04:52:29 256 461 39455 23135 -51 ENROUTE
2026-07-31 04:52:59 256 460 39455 23183 -51 ENROUTE
2026-07-31 04:53:29 256 460 39455 23232 -51 ENROUTE
2026-07-31 04:53:59 255 460 39455 23280 -51 ENROUTE
2026-07-31 04:54:29 256 461 39455 23329 -51 ENROUTE
2026-07-31 04:54:59 256 461 39455 23377 -51 ENROUTE
2026-07-31 04:55:29 256 461 39453 23424 -51 ENROUTE
2026-07-31 04:55:59 256 461 39457 23473 -51 ENROUTE
2026-07-31 04:56:29 256 461 39461 23521 -51 ENROUTE
2026-07-31 04:56:59 256 461 39461 23570 -51 ENROUTE
2026-07-31 04:57:29 256 462 39460 23618 -51 ENROUTE
2026-07-31 04:57:59 256 462 39460 23667 -51 ENROUTE
2026-07-31 04:58:29 256 462 39458 23716 -51 ENROUTE
2026-07-31 04:58:59 256 462 39457 23763 -51 ENROUTE
2026-07-31 04:59:29 256 462 39459 23811 -51 ENROUTE
2026-07-31 04:59:59 256 462 39458 23859 -51 ENROUTE
2026-07-31 05:00:29 256 461 39462 23908 -51 ENROUTE
2026-07-31 05:00:59 256 462 39464 23955 -51 ENROUTE
2026-07-31 05:01:29 256 462 39459 24005 -51 ENROUTE
2026-07-31 05:01:59 256 462 39459 24053 -51 ENROUTE
2026-07-31 05:02:29 256 462 39464 24102 -51 ENROUTE
2026-07-31 05:02:59 256 462 39464 24151 -51 ENROUTE
2026-07-31 05:03:29 256 462 39461 24196 -51 ENROUTE
2026-07-31 05:03:59 256 462 39461 24245 -51 ENROUTE
2026-07-31 05:04:29 256 462 39464 24294 -51 ENROUTE
2026-07-31 05:04:59 256 462 39464 24343 -51 ENROUTE
2026-07-31 05:05:29 256 462 39460 24391 -51 ENROUTE
2026-07-31 05:05:59 255 462 39460 24439 -51 ENROUTE
2026-07-31 05:06:29 256 463 39460 24488 -51 ENROUTE
2026-07-31 05:06:59 252 457 39461 24530 -51 ENROUTE
2026-07-31 05:07:29 251 455 39458 24577 -51 ENROUTE
2026-07-31 05:07:59 251 454 39460 24625 -51 ENROUTE
2026-07-31 05:08:29 251 454 39459 24672 -51 ENROUTE
2026-07-31 05:08:59 251 454 39460 24720 -51 ENROUTE
2026-07-31 05:09:29 251 454 39457 24769 -51 ENROUTE
2026-07-31 05:09:59 251 454 39456 24817 -51 ENROUTE
2026-07-31 05:10:29 252 454 39462 24864 -51 ENROUTE
2026-07-31 05:10:59 250 453 39463 24911 -50 ENROUTE
2026-07-31 05:11:29 251 454 39467 24960 -50 ENROUTE
2026-07-31 05:11:59 251 454 39467 25008 -50 ENROUTE
2026-07-31 05:12:29 251 454 39463 25056 -51 ENROUTE
2026-07-31 05:12:59 252 454 39463 25104 -50 ENROUTE
2026-07-31 05:13:29 251 454 39464 25152 -50 ENROUTE
2026-07-31 05:13:59 251 453 39463 25200 -50 ENROUTE
2026-07-31 05:14:29 251 453 39460 25246 -50 ENROUTE
2026-07-31 05:14:59 251 453 39460 25295 -50 ENROUTE
2026-07-31 05:15:29 251 453 39464 25343 -50 ENROUTE
2026-07-31 05:15:59 251 453 39463 25391 -50 ENROUTE
2026-07-31 05:16:29 251 454 39463 25439 -50 ENROUTE
2026-07-31 05:16:59 251 454 39463 25487 -50 ENROUTE
2026-07-31 05:17:29 251 454 39460 25536 -50 ENROUTE
2026-07-31 05:17:59 251 454 39460 25582 -50 ENROUTE
2026-07-31 05:18:29 251 454 39463 25630 -50 ENROUTE
2026-07-31 05:18:59 251 454 39463 25678 -50 ENROUTE
2026-07-31 05:19:29 251 454 39461 25726 -50 ENROUTE
2026-07-31 05:19:59 251 454 39460 25774 -50 ENROUTE
2026-07-31 05:20:29 251 454 39460 25822 -50 ENROUTE
2026-07-31 05:20:59 251 454 39460 25869 -50 ENROUTE
2026-07-31 05:21:29 251 454 39456 25916 -51 ENROUTE
2026-07-31 05:21:59 251 454 39460 25965 -51 ENROUTE
2026-07-31 05:22:29 251 454 39460 26011 -51 ENROUTE
2026-07-31 05:22:59 251 454 39459 26060 -51 ENROUTE
2026-07-31 05:23:29 251 453 39460 26108 -51 ENROUTE
2026-07-31 05:23:59 251 453 39460 26155 -51 ENROUTE
2026-07-31 05:24:29 251 453 39459 26203 -51 ENROUTE
2026-07-31 05:24:59 251 453 39460 26250 -51 ENROUTE
2026-07-31 05:25:29 251 453 39457 26298 -51 ENROUTE
2026-07-31 05:25:59 251 453 39457 26346 -51 ENROUTE
2026-07-31 05:26:29 251 453 39457 26394 -51 ENROUTE
2026-07-31 05:26:59 251 453 39457 26442 -51 ENROUTE
2026-07-31 05:27:29 251 454 39456 26490 -51 ENROUTE
2026-07-31 05:27:59 251 454 39457 26539 -51 ENROUTE
2026-07-31 05:28:29 251 454 39457 26586 -51 ENROUTE
2026-07-31 05:28:59 251 454 39456 26633 -51 ENROUTE
2026-07-31 05:29:29 251 454 39456 26681 -51 ENROUTE
2026-07-31 05:29:59 252 453 39460 26729 -51 ENROUTE
2026-07-31 05:30:29 249 450 39461 26775 -51 ENROUTE
2026-07-31 05:30:59 251 451 39461 26824 -51 ENROUTE
2026-07-31 05:31:29 249 451 39457 26871 -51 ENROUTE
2026-07-31 05:31:59 251 451 39455 26920 -51 ENROUTE
2026-07-31 05:32:29 252 451 39461 26966 -51 ENROUTE
2026-07-31 05:32:59 251 451 39458 27014 -51 ENROUTE
2026-07-31 05:33:29 251 452 39457 27063 -51 ENROUTE
2026-07-31 05:33:59 251 451 39458 27110 -51 ENROUTE
2026-07-31 05:34:29 253 452 39460 27159 -51 ENROUTE
2026-07-31 05:34:59 251 451 39461 27207 -51 ENROUTE
2026-07-31 05:35:29 252 451 39459 27254 -51 ENROUTE
2026-07-31 05:35:59 251 452 39461 27302 -51 ENROUTE
2026-07-31 05:36:29 251 452 39456 27351 -51 ENROUTE
2026-07-31 05:36:59 251 452 39458 27399 -51 ENROUTE
2026-07-31 05:37:29 251 452 39459 27446 -51 ENROUTE
2026-07-31 05:37:59 251 452 39457 27495 -51 ENROUTE
2026-07-31 05:38:29 249 452 39461 27543 -51 ENROUTE
2026-07-31 05:38:59 252 454 39459 27591 -51 ENROUTE
2026-07-31 05:39:29 251 454 39461 27638 -51 ENROUTE
2026-07-31 05:39:59 251 453 39459 27686 -51 ENROUTE
2026-07-31 05:40:29 251 454 39459 27734 -51 ENROUTE
2026-07-31 05:40:59 251 453 39458 27781 -51 ENROUTE
2026-07-31 05:41:29 251 455 39457 27830 -51 ENROUTE
2026-07-31 05:41:59 250 455 39457 27879 -51 ENROUTE
2026-07-31 05:42:29 252 455 39455 27926 -51 ENROUTE
2026-07-31 05:42:59 251 455 39454 27973 -51 ENROUTE
2026-07-31 05:43:29 251 454 39456 28021 -51 ENROUTE
2026-07-31 05:43:59 250 454 39458 28069 -51 ENROUTE
2026-07-31 05:44:29 251 455 39457 28118 -51 ENROUTE
2026-07-31 05:44:59 252 456 39458 28166 -51 ENROUTE
2026-07-31 05:45:29 251 455 39456 28213 -51 ENROUTE
2026-07-31 05:45:59 252 455 39455 28262 -51 ENROUTE
2026-07-31 05:46:29 251 456 39458 28309 -51 ENROUTE
2026-07-31 05:46:59 251 456 39461 28357 -51 ENROUTE
2026-07-31 05:47:29 251 457 39457 28406 -51 ENROUTE
2026-07-31 05:47:59 251 457 39458 28454 -51 ENROUTE
2026-07-31 05:48:29 252 457 39457 28502 -51 ENROUTE
2026-07-31 05:48:59 251 457 39458 28550 -51 ENROUTE
2026-07-31 05:49:29 251 456 39460 28598 -51 ENROUTE
2026-07-31 05:49:59 251 456 39462 28647 -51 ENROUTE
2026-07-31 05:50:29 251 456 39458 28692 -51 ENROUTE
2026-07-31 05:50:59 252 456 39458 28741 -51 ENROUTE
2026-07-31 05:51:29 250 456 39458 28789 -51 ENROUTE
2026-07-31 05:51:59 252 456 39458 28838 -51 ENROUTE
2026-07-31 05:52:29 252 456 39457 28885 -51 ENROUTE
2026-07-31 05:52:59 251 456 39456 28933 -51 ENROUTE
2026-07-31 05:53:29 251 456 39459 28980 -51 ENROUTE
2026-07-31 05:53:59 251 456 39461 29027 -51 ENROUTE
2026-07-31 05:54:29 252 455 39462 29074 -51 ENROUTE
2026-07-31 05:54:59 251 455 39462 29122 -51 ENROUTE
2026-07-31 05:55:29 251 454 39455 29170 -52 ENROUTE
2026-07-31 05:55:59 251 455 39456 29218 -52 ENROUTE
2026-07-31 05:56:29 250 454 39456 29264 -52 ENROUTE
2026-07-31 05:56:59 252 454 39455 29313 -52 ENROUTE
2026-07-31 05:57:29 251 454 39458 29360 -52 ENROUTE
2026-07-31 05:57:59 251 454 39458 29407 -52 ENROUTE
2026-07-31 05:58:29 250 456 39456 29456 -52 ENROUTE
2026-07-31 05:58:59 251 457 39456 29505 -52 ENROUTE
2026-07-31 05:59:29 250 457 39458 29553 -52 ENROUTE
2026-07-31 05:59:59 251 459 39458 29601 -52 ENROUTE
2026-07-31 06:00:29 251 460 39462 29650 -52 ENROUTE
2026-07-31 06:00:59 251 459 39462 29697 -52 ENROUTE
2026-07-31 06:01:29 251 459 39459 29744 -52 ENROUTE
2026-07-31 06:01:59 251 460 39459 29792 -52 ENROUTE
2026-07-31 06:02:29 251 460 39458 29840 -52 ENROUTE
2026-07-31 06:02:59 251 459 39458 29888 -52 ENROUTE
2026-07-31 06:03:29 251 460 39459 29935 -52 ENROUTE
2026-07-31 06:03:59 251 460 39459 29982 -52 ENROUTE
2026-07-31 06:04:29 251 460 39459 30031 -52 ENROUTE
2026-07-31 06:04:59 251 460 39459 30078 -52 ENROUTE
2026-07-31 06:05:29 251 460 39456 30126 -52 ENROUTE
2026-07-31 06:05:59 251 460 39456 30174 -52 ENROUTE
2026-07-31 06:06:29 251 460 39459 30222 -51 ENROUTE
2026-07-31 06:06:59 251 460 39459 30269 -51 ENROUTE
2026-07-31 06:07:29 251 460 39457 30316 -51 ENROUTE
2026-07-31 06:07:59 251 460 39456 30364 -51 ENROUTE
2026-07-31 06:08:29 251 460 39456 30412 -51 ENROUTE
2026-07-31 06:08:59 251 460 39457 30460 -51 ENROUTE
2026-07-31 06:09:29 251 460 39456 30508 -52 ENROUTE
2026-07-31 06:09:59 251 461 39456 30556 -52 ENROUTE
2026-07-31 06:10:29 251 461 39456 30604 -52 ENROUTE
2026-07-31 06:10:59 251 461 39456 30651 -52 ENROUTE
2026-07-31 06:11:29 251 461 39456 30697 -52 ENROUTE
2026-07-31 06:11:59 251 461 39456 30746 -52 ENROUTE
2026-07-31 06:12:29 251 461 39454 30793 -52 ENROUTE
2026-07-31 06:12:59 251 461 39454 30841 -52 ENROUTE
2026-07-31 06:13:29 251 461 39454 30888 -52 ENROUTE
2026-07-31 06:13:59 251 461 39454 30937 -52 ENROUTE
2026-07-31 06:14:29 251 461 39454 30984 -52 ENROUTE
2026-07-31 06:14:59 252 461 39454 31032 -52 ENROUTE
2026-07-31 06:15:29 251 460 39452 31078 -52 ENROUTE
2026-07-31 06:15:59 251 459 39454 31125 -52 ENROUTE
2026-07-31 06:16:29 251 459 39455 31174 -52 ENROUTE
2026-07-31 06:16:59 251 459 39454 31221 -52 ENROUTE
2026-07-31 06:17:29 251 459 39455 31270 -52 ENROUTE
2026-07-31 06:17:59 251 459 39454 31316 -52 ENROUTE
2026-07-31 06:18:29 251 459 39455 31363 -52 ENROUTE
2026-07-31 06:18:59 251 459 39455 31411 -52 ENROUTE
2026-07-31 06:19:29 251 459 39454 31458 -52 ENROUTE
2026-07-31 06:19:59 251 459 39455 31506 -52 ENROUTE
2026-07-31 06:20:29 251 459 39455 31554 -52 ENROUTE
2026-07-31 06:20:59 250 460 39457 31603 -52 ENROUTE
2026-07-31 06:21:29 251 461 39454 31650 -52 ENROUTE
2026-07-31 06:21:59 251 461 39455 31697 -52 ENROUTE
2026-07-31 06:22:29 251 461 39455 31745 -52 ENROUTE
2026-07-31 06:22:59 251 461 39455 31792 -52 ENROUTE
2026-07-31 06:23:29 252 461 39454 31840 -52 ENROUTE
2026-07-31 06:23:59 253 458 39450 31885 -52 ENROUTE
2026-07-31 06:24:29 251 456 39451 31930 -52 ENROUTE
2026-07-31 06:24:59 251 456 39451 31978 -52 ENROUTE
2026-07-31 06:25:29 251 456 39451 32025 -52 ENROUTE
2026-07-31 06:25:59 250 456 39451 32072 -52 ENROUTE
2026-07-31 06:26:29 244 457 39457 32121 -52 ENROUTE
2026-07-31 06:26:59 247 464 39463 32177 -52 ENROUTE
2026-07-31 06:27:29 253 471 39461 32234 -52 ENROUTE
2026-07-31 06:27:59 251 470 39462 32279 -52 ENROUTE
2026-07-31 06:28:29 251 470 39461 32326 -52 ENROUTE
2026-07-31 06:28:59 252 470 39462 32375 -52 ENROUTE
2026-07-31 06:29:29 248 468 39459 32419 -52 ENROUTE
2026-07-31 06:29:59 249 467 39458 32467 -52 ENROUTE
2026-07-31 06:30:29 250 468 39461 32515 -52 ENROUTE
2026-07-31 06:30:59 248 467 39461 32563 -52 ENROUTE
2026-07-31 06:31:29 250 468 39462 32610 -52 ENROUTE
2026-07-31 06:31:59 248 469 39464 32659 -52 ENROUTE
2026-07-31 06:32:29 249 470 39462 32706 -52 ENROUTE
2026-07-31 06:32:59 251 470 39462 32755 -52 ENROUTE
2026-07-31 06:33:29 250 471 39463 32802 -52 ENROUTE
2026-07-31 06:33:59 250 470 39462 32850 -52 ENROUTE
2026-07-31 06:34:29 251 471 39459 32899 -52 ENROUTE
2026-07-31 06:34:59 250 470 39459 32945 -52 ENROUTE
2026-07-31 06:35:29 250 470 39459 32991 -52 ENROUTE
2026-07-31 06:35:59 250 470 39457 33040 -52 ENROUTE
2026-07-31 06:36:29 249 470 39459 33087 -52 ENROUTE
2026-07-31 06:36:59 250 470 39458 33134 -52 ENROUTE
2026-07-31 06:37:29 250 471 39459 33182 -52 ENROUTE
2026-07-31 06:37:59 249 471 39453 33230 -52 ENROUTE
2026-07-31 06:38:29 250 471 39452 33275 -52 ENROUTE
2026-07-31 06:38:59 250 471 39452 33323 -52 ENROUTE
2026-07-31 06:39:29 249 471 39452 33371 -52 ENROUTE
2026-07-31 06:39:59 250 471 39452 33419 -52 ENROUTE
2026-07-31 06:40:29 250 471 39448 33466 -52 ENROUTE
2026-07-31 06:40:59 250 470 39449 33513 -52 ENROUTE
2026-07-31 06:41:29 250 470 39450 33559 -52 ENROUTE
2026-07-31 06:41:59 250 470 39449 33606 -52 ENROUTE
2026-07-31 06:42:29 249 470 39448 33653 -52 ENROUTE
2026-07-31 06:42:59 250 470 39449 33702 -52 ENROUTE
2026-07-31 06:43:29 250 471 39445 33749 -52 ENROUTE
2026-07-31 06:43:59 250 471 39445 33797 -52 ENROUTE
2026-07-31 06:44:29 250 471 39445 33845 -52 ENROUTE
2026-07-31 06:44:59 250 471 39445 33893 -52 ENROUTE
2026-07-31 06:45:29 250 471 39442 33939 -52 ENROUTE
2026-07-31 06:45:59 250 471 39442 33986 -52 ENROUTE
2026-07-31 06:46:29 250 471 39439 34034 -52 ENROUTE
2026-07-31 06:46:59 250 471 39439 34082 -52 ENROUTE
2026-07-31 06:47:29 250 471 39439 34128 -52 ENROUTE
2026-07-31 06:47:59 249 472 39436 34176 -52 ENROUTE
2026-07-31 06:48:29 250 472 39435 34223 -52 ENROUTE
2026-07-31 06:48:59 250 472 39431 34269 -52 ENROUTE
2026-07-31 06:49:29 250 472 39428 34317 -52 ENROUTE
2026-07-31 06:49:59 250 472 39428 34364 -52 ENROUTE
2026-07-31 06:50:29 250 472 39431 34412 -52 ENROUTE
2026-07-31 06:50:59 250 472 39431 34459 -52 ENROUTE
2026-07-31 06:51:29 250 472 39427 34507 -52 ENROUTE
2026-07-31 06:51:59 250 472 39422 34555 -52 ENROUTE
2026-07-31 06:52:29 250 472 39422 34601 -52 ENROUTE
2026-07-31 06:52:59 250 467 39462 34648 -53 ENROUTE
2026-07-31 06:53:29 251 461 39047 34687 -51 DESCENT
2026-07-31 06:53:59 253 459 38549 34723 -50 DESCENT
2026-07-31 06:54:29 256 461 38047 34764 -49 DESCENT
2026-07-31 06:54:59 259 463 37546 34806 -48 DESCENT
2026-07-31 06:55:29 262 465 37044 34848 -46 DESCENT
2026-07-31 06:55:59 265 467 36451 34889 -45 DESCENT
2026-07-31 06:56:29 268 469 35798 34931 -43 DESCENT
2026-07-31 06:56:59 272 472 35146 34975 -42 DESCENT
2026-07-31 06:57:29 277 474 34494 35021 -40 DESCENT
2026-07-31 06:57:59 280 477 33843 35068 -39 DESCENT
2026-07-31 06:58:29 285 479 33191 35115 -37 DESCENT
2026-07-31 06:58:59 285 478 32538 35161 -35 DESCENT
2026-07-31 06:59:29 287 476 31889 35207 -34 DESCENT
2026-07-31 06:59:59 287 472 31238 35251 -32 DESCENT
2026-07-31 07:00:29 289 466 30590 35294 -31 DESCENT
2026-07-31 07:00:59 286 463 29855 35337 -29 DESCENT
2026-07-31 07:01:29 290 461 29108 35381 -27 DESCENT
2026-07-31 07:01:59 286 455 28357 35418 -25 DESCENT
2026-07-31 07:02:29 288 449 27611 35454 -23 DESCENT
2026-07-31 07:02:59 285 445 26865 35493 -21 DESCENT
2026-07-31 07:03:29 287 442 26114 35537 -19 DESCENT
2026-07-31 07:03:59 287 436 25365 35575 -18 DESCENT
2026-07-31 07:04:29 287 433 24618 35616 -16 DESCENT
2026-07-31 07:04:59 288 429 23868 35658 -14 DESCENT
2026-07-31 07:05:29 288 424 23119 35698 -13 DESCENT
2026-07-31 07:05:59 287 420 22372 35740 -11 DESCENT
2026-07-31 07:06:29 288 418 21624 35783 -10 DESCENT
2026-07-31 07:06:59 289 413 20877 35823 -8 DESCENT
2026-07-31 07:07:29 282 402 20131 35841 -7 DESCENT
2026-07-31 07:07:59 274 389 19391 35850 -5 DESCENT
2026-07-31 07:08:29 254 356 18654 35859 -4 DESCENT
2026-07-31 07:08:59 237 328 17923 35867 -2 DESCENT
2026-07-31 07:09:29 222 310 17187 35882 -1 DESCENT
2026-07-31 07:09:59 220 303 16446 35919 0 DESCENT
2026-07-31 07:10:29 218 299 15858 35959 0 DESCENT
2026-07-31 07:10:59 221 297 15364 35994 1 DESCENT
2026-07-31 07:11:29 217 293 14867 36011 2 DESCENT
2026-07-31 07:11:59 217 293 14468 36043 3 DESCENT
2026-07-31 07:12:29 218 292 14222 36088 3 DESCENT
2026-07-31 07:12:59 219 290 13972 36131 4 DESCENT
2026-07-31 07:13:29 218 288 13722 36174 4 DESCENT
2026-07-31 07:13:59 218 287 13469 36218 4 DESCENT
2026-07-31 07:14:29 219 286 12980 36244 5 DESCENT
2026-07-31 07:14:59 219 283 12482 36263 6 DESCENT
2026-07-31 07:15:29 219 280 11985 36282 6 DESCENT
2026-07-31 07:15:59 218 278 11483 36300 7 DESCENT
2026-07-31 07:16:29 219 275 10986 36321 7 DESCENT
2026-07-31 07:16:59 218 270 10486 36341 8 DESCENT
2026-07-31 07:17:29 218 265 9989 36360 8 DESCENT
2026-07-31 07:17:59 218 263 9488 36380 9 DESCENT
2026-07-31 07:18:29 218 261 8988 36401 10 DESCENT
2026-07-31 07:18:59 219 260 8491 36424 11 DESCENT
2026-07-31 07:19:29 216 254 8000 36436 12 DESCENT
2026-07-31 07:19:59 205 240 7546 36446 13 DESCENT
2026-07-31 07:20:29 198 229 7059 36456 14 DESCENT
2026-07-31 07:20:59 189 219 6575 36466 14 DESCENT
2026-07-31 07:21:29 183 211 6075 36477 15 DESCENT
2026-07-31 07:22:00 181 208 5561 36498 16 DESCENT
2026-07-31 07:22:29 179 205 5079 36516 17 DESCENT
2026-07-31 07:22:59 175 198 4591 36527 18 DESCENT
2026-07-31 07:23:29 168 189 4090 36538 19 DESCENT
2026-07-31 07:23:59 157 176 3586 36548 20 DESCENT
2026-07-31 07:24:29 142 162 3163 36567 20 ENROUTE
2026-07-31 07:24:59 144 163 3150 36648 20 DESCENT
2026-07-31 07:25:29 162 177 2249 36676 22 APPROACH
2026-07-31 07:25:59 146 161 2165 36727 22 APPROACH
2026-07-31 07:26:29 148 167 2147 36814 22 APPROACH
2026-07-31 07:26:59 149 169 2150 36900 22 APPROACH
2026-07-31 07:27:29 150 166 2149 36983 22 APPROACH
2026-07-31 07:27:59 146 165 2144 37068 22 APPROACH
2026-07-31 07:28:29 148 166 2152 37157 22 APPROACH
2026-07-31 07:28:59 149 162 2147 37240 22 APPROACH
2026-07-31 07:29:29 150 152 2150 37329 22 APPROACH
2026-07-31 07:29:59 150 141 2151 37411 22 APPROACH
2026-07-31 07:30:29 150 137 2148 37497 22 APPROACH
2026-07-31 07:30:59 150 137 2097 37580 22 APPROACH
2026-07-31 07:31:29 148 136 1661 37632 23 APPROACH
2026-07-31 07:31:59 148 137 1178 37689 24 APPROACH
2026-07-31 07:32:29 144 131 858 37746 25 ON FINAL
2026-07-31 07:32:59 149 135 549 37811 26 ON FINAL
2026-07-31 07:33:29 151 136 255 37883 27 ON FINAL
2026-07-31 07:33:59 88 78 25 37932 27 ON FINAL
2026-07-31 07:34:29 22 13 25 37953 27 TAXI TO APRON
2026-07-31 07:34:59 0 1 24 37971 27 TAXI TO APRON
2026-07-31 07:35:29 0 13 25 37999 27 TAXI TO APRON
2026-07-31 07:35:59 8 23 24 38022 27 TAXI TO APRON
2026-07-31 07:36:29 3 16 25 38066 27 TAXI TO APRON
2026-07-31 07:36:59 11 14 25 38107 27 TAXI TO APRON
2026-07-31 07:37:29 6 7 25 38150 27 TAXI TO APRON
2026-07-31 07:37:59 0 0 25 38192 27 TAXI TO APRON
  • Join our VA!

    It has been 11 years of great learning, friendships, and stories.

  • Sign up now!